sensor_id;sensor_type;location;lat;lon;timestamp;temperature;humidity
20057;DHT22;10189;49.546;7.906;2023-12-28T00:00:01;5.00;88.40
20057;DHT22;10189;49.546;7.906;2023-12-28T00:02:29;5.00;88.00
20057;DHT22;10189;49.546;7.906;2023-12-28T00:04:55;5.00;87.70
20057;DHT22;10189;49.546;7.906;2023-12-28T00:07:21;5.00;88.20
20057;DHT22;10189;49.546;7.906;2023-12-28T00:09:47;5.00;88.50
20057;DHT22;10189;49.546;7.906;2023-12-28T00:12:12;4.90;88.50
20057;DHT22;10189;49.546;7.906;2023-12-28T00:14:38;4.90;88.40
20057;DHT22;10189;49.546;7.906;2023-12-28T00:17:04;4.80;88.80
20057;DHT22;10189;49.546;7.906;2023-12-28T00:19:30;4.80;88.70
20057;DHT22;10189;49.546;7.906;2023-12-28T00:21:56;4.70;89.10
20057;DHT22;10189;49.546;7.906;2023-12-28T00:24:22;4.80;90.10
20057;DHT22;10189;49.546;7.906;2023-12-28T00:26:48;4.60;90.50
20057;DHT22;10189;49.546;7.906;2023-12-28T00:29:14;4.60;91.30
20057;DHT22;10189;49.546;7.906;2023-12-28T00:31:40;4.50;91.90
20057;DHT22;10189;49.546;7.906;2023-12-28T00:34:06;4.50;91.80
20057;DHT22;10189;49.546;7.906;2023-12-28T00:36:32;4.60;91.40
20057;DHT22;10189;49.546;7.906;2023-12-28T00:38:58;4.50;92.10
20057;DHT22;10189;49.546;7.906;2023-12-28T00:41:24;4.50;92.60
20057;DHT22;10189;49.546;7.906;2023-12-28T00:43:50;4.40;93.00
20057;DHT22;10189;49.546;7.906;2023-12-28T00:46:15;4.30;93.20
20057;DHT22;10189;49.546;7.906;2023-12-28T00:48:41;4.30;93.50
20057;DHT22;10189;49.546;7.906;2023-12-28T00:51:07;4.20;93.60
20057;DHT22;10189;49.546;7.906;2023-12-28T00:53:33;4.30;93.30
20057;DHT22;10189;49.546;7.906;2023-12-28T00:56:00;4.40;93.40
20057;DHT22;10189;49.546;7.906;2023-12-28T00:58:26;4.40;94.10
20057;DHT22;10189;49.546;7.906;2023-12-28T01:00:52;4.50;94.00
20057;DHT22;10189;49.546;7.906;2023-12-28T01:03:21;4.60;94.00
20057;DHT22;10189;49.546;7.906;2023-12-28T01:05:47;4.70;93.90
20057;DHT22;10189;49.546;7.906;2023-12-28T01:08:16;4.80;93.60
20057;DHT22;10189;49.546;7.906;2023-12-28T01:10:43;5.00;92.80
20057;DHT22;10189;49.546;7.906;2023-12-28T01:13:09;5.10;92.40
20057;DHT22;10189;49.546;7.906;2023-12-28T01:15:35;5.10;91.80
20057;DHT22;10189;49.546;7.906;2023-12-28T01:18:02;5.20;92.30
20057;DHT22;10189;49.546;7.906;2023-12-28T01:20:29;5.30;91.20
20057;DHT22;10189;49.546;7.906;2023-12-28T01:22:55;5.40;90.60
20057;DHT22;10189;49.546;7.906;2023-12-28T01:25:21;5.50;89.60
20057;DHT22;10189;49.546;7.906;2023-12-28T01:27:47;5.60;89.70
20057;DHT22;10189;49.546;7.906;2023-12-28T01:30:13;5.70;88.80
20057;DHT22;10189;49.546;7.906;2023-12-28T01:32:38;5.80;87.90
20057;DHT22;10189;49.546;7.906;2023-12-28T01:35:05;5.90;88.10
20057;DHT22;10189;49.546;7.906;2023-12-28T01:37:31;6.00;88.60
20057;DHT22;10189;49.546;7.906;2023-12-28T01:39:59;6.00;86.70
20057;DHT22;10189;49.546;7.906;2023-12-28T01:42:26;6.30;86.00
20057;DHT22;10189;49.546;7.906;2023-12-28T01:44:52;6.50;85.50
20057;DHT22;10189;49.546;7.906;2023-12-28T01:47:18;6.60;86.60
20057;DHT22;10189;49.546;7.906;2023-12-28T01:49:45;6.70;86.50
20057;DHT22;10189;49.546;7.906;2023-12-28T01:52:11;6.90;86.50
20057;DHT22;10189;49.546;7.906;2023-12-28T01:54:38;6.90;87.90
20057;DHT22;10189;49.546;7.906;2023-12-28T01:57:04;6.90;88.50
20057;DHT22;10189;49.546;7.906;2023-12-28T01:59:31;6.90;89.80
20057;DHT22;10189;49.546;7.906;2023-12-28T02:01:58;6.90;91.30
20057;DHT22;10189;49.546;7.906;2023-12-28T02:04:24;6.80;92.70
20057;DHT22;10189;49.546;7.906;2023-12-28T02:06:58;6.70;94.30
20057;DHT22;10189;49.546;7.906;2023-12-28T02:09:25;6.70;95.60
20057;DHT22;10189;49.546;7.906;2023-12-28T02:11:52;6.70;96.20
20057;DHT22;10189;49.546;7.906;2023-12-28T02:14:20;6.70;96.90
20057;DHT22;10189;49.546;7.906;2023-12-28T02:17:00;6.60;97.80
20057;DHT22;10189;49.546;7.906;2023-12-28T02:19:47;6.60;98.20
20057;DHT22;10189;49.546;7.906;2023-12-28T02:22:16;6.50;99.30
20057;DHT22;10189;49.546;7.906;2023-12-28T02:25:08;6.40;99.80
20057;DHT22;10189;49.546;7.906;2023-12-28T02:27:38;6.40;99.90
20057;DHT22;10189;49.546;7.906;2023-12-28T02:30:06;6.40;99.90
20057;DHT22;10189;49.546;7.906;2023-12-28T02:32:54;6.40;99.90
20057;DHT22;10189;49.546;7.906;2023-12-28T02:35:37;6.40;99.90
20057;DHT22;10189;49.546;7.906;2023-12-28T02:38:12;6.40;99.90
20057;DHT22;10189;49.546;7.906;2023-12-28T02:40:41;6.30;99.90
20057;DHT22;10189;49.546;7.906;2023-12-28T02:43:10;6.30;99.90
20057;DHT22;10189;49.546;7.906;2023-12-28T02:45:37;6.30;99.90
20057;DHT22;10189;49.546;7.906;2023-12-28T02:48:05;6.20;99.90
20057;DHT22;10189;49.546;7.906;2023-12-28T02:50:32;6.20;99.90
20057;DHT22;10189;49.546;7.906;2023-12-28T02:53:00;6.10;99.90
20057;DHT22;10189;49.546;7.906;2023-12-28T02:55:26;6.10;99.90
20057;DHT22;10189;49.546;7.906;2023-12-28T02:57:53;6.00;99.90
20057;DHT22;10189;49.546;7.906;2023-12-28T03:00:21;6.00;99.90
20057;DHT22;10189;49.546;7.906;2023-12-28T03:02:47;6.00;99.90
20057;DHT22;10189;49.546;7.906;2023-12-28T03:05:13;6.00;99.90
20057;DHT22;10189;49.546;7.906;2023-12-28T03:07:39;6.00;99.90
20057;DHT22;10189;49.546;7.906;2023-12-28T03:10:06;6.00;99.90
20057;DHT22;10189;49.546;7.906;2023-12-28T03:12:33;6.00;99.90
20057;DHT22;10189;49.546;7.906;2023-12-28T03:14:59;6.00;99.90
20057;DHT22;10189;49.546;7.906;2023-12-28T03:17:25;6.00;99.90
20057;DHT22;10189;49.546;7.906;2023-12-28T03:19:51;5.90;99.90
20057;DHT22;10189;49.546;7.906;2023-12-28T03:22:17;5.90;99.90
20057;DHT22;10189;49.546;7.906;2023-12-28T03:24:44;5.90;99.90
20057;DHT22;10189;49.546;7.906;2023-12-28T03:27:12;5.90;99.90
20057;DHT22;10189;49.546;7.906;2023-12-28T03:29:38;5.90;99.90
20057;DHT22;10189;49.546;7.906;2023-12-28T03:32:04;5.90;99.90
20057;DHT22;10189;49.546;7.906;2023-12-28T03:34:30;5.90;99.90
20057;DHT22;10189;49.546;7.906;2023-12-28T03:36:56;6.00;99.90
20057;DHT22;10189;49.546;7.906;2023-12-28T03:39:23;6.00;99.90
20057;DHT22;10189;49.546;7.906;2023-12-28T03:41:49;6.00;99.90
20057;DHT22;10189;49.546;7.906;2023-12-28T03:44:15;5.90;99.90
20057;DHT22;10189;49.546;7.906;2023-12-28T03:46:40;5.90;99.90
20057;DHT22;10189;49.546;7.906;2023-12-28T03:49:06;6.00;99.90
20057;DHT22;10189;49.546;7.906;2023-12-28T03:51:33;6.00;99.90
20057;DHT22;10189;49.546;7.906;2023-12-28T03:53:59;6.00;99.90
20057;DHT22;10189;49.546;7.906;2023-12-28T03:56:26;6.00;99.90
20057;DHT22;10189;49.546;7.906;2023-12-28T03:58:53;6.00;99.90
20057;DHT22;10189;49.546;7.906;2023-12-28T04:01:21;6.00;99.90
20057;DHT22;10189;49.546;7.906;2023-12-28T04:03:49;6.00;99.90
20057;DHT22;10189;49.546;7.906;2023-12-28T04:06:15;6.00;99.90
20057;DHT22;10189;49.546;7.906;2023-12-28T04:08:41;6.10;99.90
20057;DHT22;10189;49.546;7.906;2023-12-28T04:11:08;6.10;99.90
20057;DHT22;10189;49.546;7.906;2023-12-28T04:13:35;6.10;99.90
20057;DHT22;10189;49.546;7.906;2023-12-28T04:16:01;6.10;99.90
20057;DHT22;10189;49.546;7.906;2023-12-28T04:18:28;6.10;99.90
20057;DHT22;10189;49.546;7.906;2023-12-28T04:20:54;6.10;99.90
20057;DHT22;10189;49.546;7.906;2023-12-28T04:23:20;6.10;99.90
20057;DHT22;10189;49.546;7.906;2023-12-28T04:25:46;6.10;99.90
20057;DHT22;10189;49.546;7.906;2023-12-28T04:28:12;6.10;99.90
20057;DHT22;10189;49.546;7.906;2023-12-28T04:30:38;6.10;99.90
20057;DHT22;10189;49.546;7.906;2023-12-28T04:33:04;6.10;99.90
20057;DHT22;10189;49.546;7.906;2023-12-28T04:35:30;6.00;99.90
20057;DHT22;10189;49.546;7.906;2023-12-28T04:37:56;6.10;99.90
20057;DHT22;10189;49.546;7.906;2023-12-28T04:40:22;6.10;99.90
20057;DHT22;10189;49.546;7.906;2023-12-28T04:42:49;6.10;99.90
20057;DHT22;10189;49.546;7.906;2023-12-28T04:45:15;6.10;99.90
20057;DHT22;10189;49.546;7.906;2023-12-28T04:47:41;6.10;99.90
20057;DHT22;10189;49.546;7.906;2023-12-28T04:50:07;6.10;99.90
20057;DHT22;10189;49.546;7.906;2023-12-28T04:52:33;6.10;99.90
20057;DHT22;10189;49.546;7.906;2023-12-28T04:54:59;6.10;99.90
20057;DHT22;10189;49.546;7.906;2023-12-28T04:57:26;6.10;99.90
20057;DHT22;10189;49.546;7.906;2023-12-28T04:59:53;6.10;99.90
20057;DHT22;10189;49.546;7.906;2023-12-28T05:02:20;6.20;99.90
20057;DHT22;10189;49.546;7.906;2023-12-28T05:04:46;6.20;99.90
20057;DHT22;10189;49.546;7.906;2023-12-28T05:07:12;6.20;99.90
20057;DHT22;10189;49.546;7.906;2023-12-28T05:09:37;6.30;99.90
20057;DHT22;10189;49.546;7.906;2023-12-28T05:12:04;6.40;99.90
20057;DHT22;10189;49.546;7.906;2023-12-28T05:14:30;6.40;99.90
20057;DHT22;10189;49.546;7.906;2023-12-28T05:16:56;6.40;99.90
20057;DHT22;10189;49.546;7.906;2023-12-28T05:19:21;6.40;99.90
20057;DHT22;10189;49.546;7.906;2023-12-28T05:21:47;6.40;99.90
20057;DHT22;10189;49.546;7.906;2023-12-28T05:24:13;6.40;99.90
20057;DHT22;10189;49.546;7.906;2023-12-28T05:26:39;6.40;99.90
20057;DHT22;10189;49.546;7.906;2023-12-28T05:29:05;6.50;99.90
20057;DHT22;10189;49.546;7.906;2023-12-28T05:31:31;6.50;99.90
20057;DHT22;10189;49.546;7.906;2023-12-28T05:33:57;6.50;99.90
20057;DHT22;10189;49.546;7.906;2023-12-28T05:36:24;6.50;99.90
20057;DHT22;10189;49.546;7.906;2023-12-28T05:38:50;6.50;99.90
20057;DHT22;10189;49.546;7.906;2023-12-28T05:41:16;6.50;99.90
20057;DHT22;10189;49.546;7.906;2023-12-28T05:43:42;6.50;99.90
20057;DHT22;10189;49.546;7.906;2023-12-28T05:46:08;6.50;99.90
20057;DHT22;10189;49.546;7.906;2023-12-28T05:48:34;6.50;99.90
20057;DHT22;10189;49.546;7.906;2023-12-28T05:51:00;6.60;99.90
20057;DHT22;10189;49.546;7.906;2023-12-28T05:53:26;6.60;99.90
20057;DHT22;10189;49.546;7.906;2023-12-28T05:55:53;6.60;99.90
20057;DHT22;10189;49.546;7.906;2023-12-28T05:58:19;6.60;99.90
20057;DHT22;10189;49.546;7.906;2023-12-28T06:00:45;6.60;99.90
20057;DHT22;10189;49.546;7.906;2023-12-28T06:03:14;6.60;99.90
20057;DHT22;10189;49.546;7.906;2023-12-28T06:05:40;6.60;99.90
20057;DHT22;10189;49.546;7.906;2023-12-28T06:08:06;6.70;99.90
20057;DHT22;10189;49.546;7.906;2023-12-28T06:10:32;6.70;99.90
20057;DHT22;10189;49.546;7.906;2023-12-28T06:12:58;6.70;99.90
20057;DHT22;10189;49.546;7.906;2023-12-28T06:15:24;6.70;99.90
20057;DHT22;10189;49.546;7.906;2023-12-28T06:17:49;6.70;99.90
20057;DHT22;10189;49.546;7.906;2023-12-28T06:20:15;6.70;99.90
20057;DHT22;10189;49.546;7.906;2023-12-28T06:22:41;6.70;99.90
20057;DHT22;10189;49.546;7.906;2023-12-28T06:25:08;6.80;99.90
20057;DHT22;10189;49.546;7.906;2023-12-28T06:27:36;6.80;99.90
20057;DHT22;10189;49.546;7.906;2023-12-28T06:30:02;6.70;99.90
20057;DHT22;10189;49.546;7.906;2023-12-28T06:32:28;6.70;99.90
20057;DHT22;10189;49.546;7.906;2023-12-28T06:34:54;6.70;99.90
20057;DHT22;10189;49.546;7.906;2023-12-28T06:37:20;6.70;99.90
20057;DHT22;10189;49.546;7.906;2023-12-28T06:39:46;6.70;99.90
20057;DHT22;10189;49.546;7.906;2023-12-28T06:42:12;6.70;99.90
20057;DHT22;10189;49.546;7.906;2023-12-28T06:44:37;6.80;99.90
20057;DHT22;10189;49.546;7.906;2023-12-28T06:47:03;6.80;99.90
20057;DHT22;10189;49.546;7.906;2023-12-28T06:49:29;6.80;99.90
20057;DHT22;10189;49.546;7.906;2023-12-28T06:51:55;6.80;99.90
20057;DHT22;10189;49.546;7.906;2023-12-28T06:54:21;6.80;99.90
20057;DHT22;10189;49.546;7.906;2023-12-28T06:56:47;6.80;99.90
20057;DHT22;10189;49.546;7.906;2023-12-28T06:59:13;6.80;99.90
20057;DHT22;10189;49.546;7.906;2023-12-28T07:01:41;6.80;99.90
20057;DHT22;10189;49.546;7.906;2023-12-28T07:04:07;6.90;99.90
20057;DHT22;10189;49.546;7.906;2023-12-28T07:06:33;6.90;99.90
20057;DHT22;10189;49.546;7.906;2023-12-28T07:08:59;6.90;99.90
20057;DHT22;10189;49.546;7.906;2023-12-28T07:11:25;6.90;99.90
20057;DHT22;10189;49.546;7.906;2023-12-28T07:13:53;6.90;99.90
20057;DHT22;10189;49.546;7.906;2023-12-28T07:16:19;6.90;99.90
20057;DHT22;10189;49.546;7.906;2023-12-28T07:18:45;6.90;99.90
20057;DHT22;10189;49.546;7.906;2023-12-28T07:21:11;6.90;99.90
20057;DHT22;10189;49.546;7.906;2023-12-28T07:23:37;6.90;99.90
20057;DHT22;10189;49.546;7.906;2023-12-28T07:26:04;6.90;99.90
20057;DHT22;10189;49.546;7.906;2023-12-28T07:28:30;6.90;99.90
20057;DHT22;10189;49.546;7.906;2023-12-28T07:30:56;6.90;99.90
20057;DHT22;10189;49.546;7.906;2023-12-28T07:33:22;7.00;99.90
20057;DHT22;10189;49.546;7.906;2023-12-28T07:35:48;7.00;99.90
20057;DHT22;10189;49.546;7.906;2023-12-28T07:38:14;7.00;99.90
20057;DHT22;10189;49.546;7.906;2023-12-28T07:40:40;7.00;99.90
20057;DHT22;10189;49.546;7.906;2023-12-28T07:43:06;7.00;99.90
20057;DHT22;10189;49.546;7.906;2023-12-28T07:45:32;7.00;99.90
20057;DHT22;10189;49.546;7.906;2023-12-28T07:48:01;7.00;99.90
20057;DHT22;10189;49.546;7.906;2023-12-28T07:50:27;7.10;99.90
20057;DHT22;10189;49.546;7.906;2023-12-28T07:52:53;7.00;99.90
20057;DHT22;10189;49.546;7.906;2023-12-28T07:55:19;7.00;99.90
20057;DHT22;10189;49.546;7.906;2023-12-28T07:57:45;7.00;99.90
20057;DHT22;10189;49.546;7.906;2023-12-28T08:00:11;7.10;99.90
20057;DHT22;10189;49.546;7.906;2023-12-28T08:02:38;7.10;99.90
20057;DHT22;10189;49.546;7.906;2023-12-28T08:05:04;7.10;99.90
20057;DHT22;10189;49.546;7.906;2023-12-28T08:07:31;7.10;99.90
20057;DHT22;10189;49.546;7.906;2023-12-28T08:09:57;7.10;99.90
20057;DHT22;10189;49.546;7.906;2023-12-28T08:12:23;7.10;99.90
20057;DHT22;10189;49.546;7.906;2023-12-28T08:14:50;7.10;99.90
20057;DHT22;10189;49.546;7.906;2023-12-28T08:17:16;7.10;99.90
20057;DHT22;10189;49.546;7.906;2023-12-28T08:19:42;7.10;99.90
20057;DHT22;10189;49.546;7.906;2023-12-28T08:22:08;7.10;99.90
20057;DHT22;10189;49.546;7.906;2023-12-28T08:24:34;7.10;99.90
20057;DHT22;10189;49.546;7.906;2023-12-28T08:27:02;7.10;99.90
20057;DHT22;10189;49.546;7.906;2023-12-28T08:29:28;7.10;99.90
20057;DHT22;10189;49.546;7.906;2023-12-28T08:31:54;7.20;99.90
20057;DHT22;10189;49.546;7.906;2023-12-28T08:34:21;7.20;99.90
20057;DHT22;10189;49.546;7.906;2023-12-28T08:36:47;7.20;99.90
20057;DHT22;10189;49.546;7.906;2023-12-28T08:39:13;7.20;99.90
20057;DHT22;10189;49.546;7.906;2023-12-28T08:41:39;7.20;99.90
20057;DHT22;10189;49.546;7.906;2023-12-28T08:44:04;7.20;99.90
20057;DHT22;10189;49.546;7.906;2023-12-28T08:46:30;7.20;99.90
20057;DHT22;10189;49.546;7.906;2023-12-28T08:48:56;7.20;99.90
20057;DHT22;10189;49.546;7.906;2023-12-28T08:51:22;7.20;99.90
20057;DHT22;10189;49.546;7.906;2023-12-28T08:53:48;7.10;99.90
20057;DHT22;10189;49.546;7.906;2023-12-28T08:56:20;7.10;99.90
20057;DHT22;10189;49.546;7.906;2023-12-28T08:58:47;7.10;99.90
20057;DHT22;10189;49.546;7.906;2023-12-28T09:01:17;7.10;99.90
20057;DHT22;10189;49.546;7.906;2023-12-28T09:03:51;7.10;99.90
20057;DHT22;10189;49.546;7.906;2023-12-28T09:06:18;7.10;99.90
20057;DHT22;10189;49.546;7.906;2023-12-28T09:08:47;7.10;99.90
20057;DHT22;10189;49.546;7.906;2023-12-28T09:11:17;7.10;99.90
20057;DHT22;10189;49.546;7.906;2023-12-28T09:13:44;7.20;99.90
20057;DHT22;10189;49.546;7.906;2023-12-28T09:16:11;7.20;99.90
20057;DHT22;10189;49.546;7.906;2023-12-28T09:18:39;7.20;99.90
20057;DHT22;10189;49.546;7.906;2023-12-28T09:21:07;7.30;99.90
20057;DHT22;10189;49.546;7.906;2023-12-28T09:23:34;7.30;99.90
20057;DHT22;10189;49.546;7.906;2023-12-28T09:26:02;7.30;99.90
20057;DHT22;10189;49.546;7.906;2023-12-28T09:28:31;7.30;99.90
20057;DHT22;10189;49.546;7.906;2023-12-28T09:31:00;7.30;99.90
20057;DHT22;10189;49.546;7.906;2023-12-28T09:33:26;7.30;99.90
20057;DHT22;10189;49.546;7.906;2023-12-28T09:35:52;7.40;99.90
20057;DHT22;10189;49.546;7.906;2023-12-28T09:38:19;7.50;99.90
20057;DHT22;10189;49.546;7.906;2023-12-28T09:40:45;7.50;99.90
20057;DHT22;10189;49.546;7.906;2023-12-28T09:45:49;7.60;99.90
20057;DHT22;10189;49.546;7.906;2023-12-28T09:48:19;7.60;99.90
20057;DHT22;10189;49.546;7.906;2023-12-28T09:53:29;7.80;99.90
20057;DHT22;10189;49.546;7.906;2023-12-28T09:55:55;7.80;99.90
20057;DHT22;10189;49.546;7.906;2023-12-28T09:58:21;7.90;99.90
20057;DHT22;10189;49.546;7.906;2023-12-28T10:00:49;7.90;99.90
20057;DHT22;10189;49.546;7.906;2023-12-28T10:03:16;7.90;99.90
20057;DHT22;10189;49.546;7.906;2023-12-28T10:05:44;7.90;99.90
20057;DHT22;10189;49.546;7.906;2023-12-28T10:08:16;7.90;99.90
20057;DHT22;10189;49.546;7.906;2023-12-28T10:10:44;7.90;99.90
20057;DHT22;10189;49.546;7.906;2023-12-28T10:13:17;7.80;99.90
20057;DHT22;10189;49.546;7.906;2023-12-28T10:15:43;7.80;99.90
20057;DHT22;10189;49.546;7.906;2023-12-28T10:18:09;7.80;99.90
20057;DHT22;10189;49.546;7.906;2023-12-28T10:20:35;7.80;99.90
20057;DHT22;10189;49.546;7.906;2023-12-28T10:23:01;7.80;99.90
20057;DHT22;10189;49.546;7.906;2023-12-28T10:25:27;7.90;99.90
20057;DHT22;10189;49.546;7.906;2023-12-28T10:27:54;8.00;99.90
20057;DHT22;10189;49.546;7.906;2023-12-28T10:30:21;7.90;99.90
20057;DHT22;10189;49.546;7.906;2023-12-28T10:32:47;7.90;99.90
20057;DHT22;10189;49.546;7.906;2023-12-28T10:35:13;7.90;99.90
20057;DHT22;10189;49.546;7.906;2023-12-28T10:37:40;8.00;99.90
20057;DHT22;10189;49.546;7.906;2023-12-28T10:40:14;8.00;99.90
20057;DHT22;10189;49.546;7.906;2023-12-28T10:42:51;8.10;99.90
20057;DHT22;10189;49.546;7.906;2023-12-28T10:45:20;8.10;99.90
20057;DHT22;10189;49.546;7.906;2023-12-28T10:48:10;8.10;99.90
20057;DHT22;10189;49.546;7.906;2023-12-28T10:50:48;8.20;99.90
20057;DHT22;10189;49.546;7.906;2023-12-28T10:53:34;8.10;99.90
20057;DHT22;10189;49.546;7.906;2023-12-28T10:56:37;8.20;99.90
20057;DHT22;10189;49.546;7.906;2023-12-28T11:01:51;8.20;99.90
20057;DHT22;10189;49.546;7.906;2023-12-28T11:07:10;8.10;99.90
20057;DHT22;10189;49.546;7.906;2023-12-28T11:09:41;8.10;99.90
20057;DHT22;10189;49.546;7.906;2023-12-28T11:12:08;8.10;99.90
20057;DHT22;10189;49.546;7.906;2023-12-28T11:14:41;8.10;99.90
20057;DHT22;10189;49.546;7.906;2023-12-28T11:17:09;8.20;99.90
20057;DHT22;10189;49.546;7.906;2023-12-28T11:19:37;8.30;99.90
20057;DHT22;10189;49.546;7.906;2023-12-28T11:22:05;8.30;99.90
20057;DHT22;10189;49.546;7.906;2023-12-28T11:24:32;8.40;99.90
20057;DHT22;10189;49.546;7.906;2023-12-28T11:26:59;8.40;99.90
20057;DHT22;10189;49.546;7.906;2023-12-28T11:29:25;8.40;99.90
20057;DHT22;10189;49.546;7.906;2023-12-28T11:31:52;8.50;99.90
20057;DHT22;10189;49.546;7.906;2023-12-28T11:34:24;8.50;99.90
20057;DHT22;10189;49.546;7.906;2023-12-28T11:36:53;8.50;99.90
20057;DHT22;10189;49.546;7.906;2023-12-28T11:39:33;8.40;99.90
20057;DHT22;10189;49.546;7.906;2023-12-28T11:42:01;8.50;99.90
20057;DHT22;10189;49.546;7.906;2023-12-28T11:44:39;8.50;99.90
20057;DHT22;10189;49.546;7.906;2023-12-28T11:47:20;8.40;99.90
20057;DHT22;10189;49.546;7.906;2023-12-28T11:49:48;8.40;99.90
20057;DHT22;10189;49.546;7.906;2023-12-28T11:52:28;8.40;99.90
20057;DHT22;10189;49.546;7.906;2023-12-28T11:54:55;8.40;99.90
20057;DHT22;10189;49.546;7.906;2023-12-28T11:57:22;8.40;99.90
20057;DHT22;10189;49.546;7.906;2023-12-28T11:59:58;8.40;99.90
20057;DHT22;10189;49.546;7.906;2023-12-28T12:02:25;8.30;99.90
20057;DHT22;10189;49.546;7.906;2023-12-28T12:04:53;8.30;99.90
20057;DHT22;10189;49.546;7.906;2023-12-28T12:07:20;8.30;99.90
20057;DHT22;10189;49.546;7.906;2023-12-28T12:09:46;8.30;99.90
20057;DHT22;10189;49.546;7.906;2023-12-28T12:12:12;8.20;99.90
20057;DHT22;10189;49.546;7.906;2023-12-28T12:14:38;8.20;99.90
20057;DHT22;10189;49.546;7.906;2023-12-28T12:17:05;8.20;99.90
20057;DHT22;10189;49.546;7.906;2023-12-28T12:19:31;8.20;99.90
20057;DHT22;10189;49.546;7.906;2023-12-28T12:21:57;8.10;99.90
20057;DHT22;10189;49.546;7.906;2023-12-28T12:24:23;8.20;99.90
20057;DHT22;10189;49.546;7.906;2023-12-28T12:26:50;8.20;99.90
20057;DHT22;10189;49.546;7.906;2023-12-28T12:29:17;8.30;99.90
20057;DHT22;10189;49.546;7.906;2023-12-28T12:31:45;8.30;99.90
20057;DHT22;10189;49.546;7.906;2023-12-28T12:34:16;8.30;99.90
20057;DHT22;10189;49.546;7.906;2023-12-28T12:36:42;8.20;99.90
20057;DHT22;10189;49.546;7.906;2023-12-28T12:39:13;8.20;99.90
20057;DHT22;10189;49.546;7.906;2023-12-28T12:41:39;8.00;99.90
20057;DHT22;10189;49.546;7.906;2023-12-28T12:44:05;7.90;99.90
20057;DHT22;10189;49.546;7.906;2023-12-28T12:46:31;7.90;99.90
20057;DHT22;10189;49.546;7.906;2023-12-28T12:48:58;7.80;99.90
20057;DHT22;10189;49.546;7.906;2023-12-28T12:51:26;7.80;99.90
20057;DHT22;10189;49.546;7.906;2023-12-28T12:54:00;7.80;99.90
20057;DHT22;10189;49.546;7.906;2023-12-28T12:56:28;7.90;99.90
20057;DHT22;10189;49.546;7.906;2023-12-28T12:58:56;7.90;99.90
20057;DHT22;10189;49.546;7.906;2023-12-28T13:01:25;8.00;99.90
20057;DHT22;10189;49.546;7.906;2023-12-28T13:03:51;7.90;99.90
20057;DHT22;10189;49.546;7.906;2023-12-28T13:06:17;7.90;99.90
20057;DHT22;10189;49.546;7.906;2023-12-28T13:08:43;7.90;99.90
20057;DHT22;10189;49.546;7.906;2023-12-28T13:11:09;7.90;99.90
20057;DHT22;10189;49.546;7.906;2023-12-28T13:13:35;7.90;99.90
20057;DHT22;10189;49.546;7.906;2023-12-28T13:16:02;7.90;99.90
20057;DHT22;10189;49.546;7.906;2023-12-28T13:18:28;7.90;99.90
20057;DHT22;10189;49.546;7.906;2023-12-28T13:20:54;7.80;99.90
20057;DHT22;10189;49.546;7.906;2023-12-28T13:23:20;7.80;99.90
20057;DHT22;10189;49.546;7.906;2023-12-28T13:25:46;7.70;99.90
20057;DHT22;10189;49.546;7.906;2023-12-28T13:28:12;7.70;99.90
20057;DHT22;10189;49.546;7.906;2023-12-28T13:30:39;7.60;99.90
20057;DHT22;10189;49.546;7.906;2023-12-28T13:33:05;7.60;99.90
20057;DHT22;10189;49.546;7.906;2023-12-28T13:35:31;7.50;99.90
20057;DHT22;10189;49.546;7.906;2023-12-28T13:38:00;7.50;99.90
20057;DHT22;10189;49.546;7.906;2023-12-28T13:40:29;7.60;99.90
20057;DHT22;10189;49.546;7.906;2023-12-28T13:42:56;7.60;99.90
20057;DHT22;10189;49.546;7.906;2023-12-28T13:45:22;7.60;99.90
20057;DHT22;10189;49.546;7.906;2023-12-28T13:47:49;7.60;99.90
20057;DHT22;10189;49.546;7.906;2023-12-28T13:50:15;7.60;99.90
20057;DHT22;10189;49.546;7.906;2023-12-28T13:52:41;7.70;99.90
20057;DHT22;10189;49.546;7.906;2023-12-28T13:55:07;7.70;99.90
20057;DHT22;10189;49.546;7.906;2023-12-28T13:57:33;7.70;99.90
20057;DHT22;10189;49.546;7.906;2023-12-28T13:59:59;7.70;99.90
20057;DHT22;10189;49.546;7.906;2023-12-28T14:02:27;7.70;99.90
20057;DHT22;10189;49.546;7.906;2023-12-28T14:04:52;7.80;99.90
20057;DHT22;10189;49.546;7.906;2023-12-28T14:07:24;7.70;99.90
20057;DHT22;10189;49.546;7.906;2023-12-28T14:09:50;7.70;99.90
20057;DHT22;10189;49.546;7.906;2023-12-28T14:12:16;7.70;99.90
20057;DHT22;10189;49.546;7.906;2023-12-28T14:14:42;7.70;99.90
20057;DHT22;10189;49.546;7.906;2023-12-28T14:17:08;7.70;99.90
20057;DHT22;10189;49.546;7.906;2023-12-28T14:19:34;7.60;99.90
20057;DHT22;10189;49.546;7.906;2023-12-28T14:22:00;7.60;99.90
20057;DHT22;10189;49.546;7.906;2023-12-28T14:24:26;7.60;99.90
20057;DHT22;10189;49.546;7.906;2023-12-28T14:26:54;7.60;99.90
20057;DHT22;10189;49.546;7.906;2023-12-28T14:29:22;7.60;99.90
20057;DHT22;10189;49.546;7.906;2023-12-28T14:32:00;7.60;99.90
20057;DHT22;10189;49.546;7.906;2023-12-28T14:34:28;7.60;99.90
20057;DHT22;10189;49.546;7.906;2023-12-28T14:37:00;7.60;99.90
20057;DHT22;10189;49.546;7.906;2023-12-28T14:39:38;7.60;99.90
20057;DHT22;10189;49.546;7.906;2023-12-28T14:42:05;7.60;99.90
20057;DHT22;10189;49.546;7.906;2023-12-28T14:44:35;7.50;99.90
20057;DHT22;10189;49.546;7.906;2023-12-28T14:47:01;7.50;99.90
20057;DHT22;10189;49.546;7.906;2023-12-28T14:49:41;7.50;99.90
20057;DHT22;10189;49.546;7.906;2023-12-28T14:52:13;7.40;99.90
20057;DHT22;10189;49.546;7.906;2023-12-28T14:54:43;7.30;99.90
20057;DHT22;10189;49.546;7.906;2023-12-28T14:57:09;7.20;99.90
20057;DHT22;10189;49.546;7.906;2023-12-28T14:59:41;7.20;99.90
20057;DHT22;10189;49.546;7.906;2023-12-28T15:02:08;7.20;99.90
20057;DHT22;10189;49.546;7.906;2023-12-28T15:04:35;7.10;99.90
20057;DHT22;10189;49.546;7.906;2023-12-28T15:07:04;7.00;99.90
20057;DHT22;10189;49.546;7.906;2023-12-28T15:09:32;6.90;99.90
20057;DHT22;10189;49.546;7.906;2023-12-28T15:12:09;6.80;99.90
20057;DHT22;10189;49.546;7.906;2023-12-28T15:14:36;6.80;99.90
20057;DHT22;10189;49.546;7.906;2023-12-28T15:17:04;6.70;99.90
20057;DHT22;10189;49.546;7.906;2023-12-28T15:19:30;6.70;99.90
20057;DHT22;10189;49.546;7.906;2023-12-28T15:21:57;6.60;99.90
20057;DHT22;10189;49.546;7.906;2023-12-28T15:24:23;6.60;99.90
20057;DHT22;10189;49.546;7.906;2023-12-28T15:26:49;6.60;99.90
20057;DHT22;10189;49.546;7.906;2023-12-28T15:29:16;6.50;99.90
20057;DHT22;10189;49.546;7.906;2023-12-28T15:31:41;6.40;99.90
20057;DHT22;10189;49.546;7.906;2023-12-28T15:34:08;6.50;99.90
20057;DHT22;10189;49.546;7.906;2023-12-28T15:36:34;6.50;99.90
20057;DHT22;10189;49.546;7.906;2023-12-28T15:39:00;6.50;99.90
20057;DHT22;10189;49.546;7.906;2023-12-28T15:41:30;6.50;99.90
20057;DHT22;10189;49.546;7.906;2023-12-28T15:43:56;6.60;99.90
20057;DHT22;10189;49.546;7.906;2023-12-28T15:46:22;6.50;99.90
20057;DHT22;10189;49.546;7.906;2023-12-28T15:48:48;6.50;99.90
20057;DHT22;10189;49.546;7.906;2023-12-28T15:51:14;6.40;99.90
20057;DHT22;10189;49.546;7.906;2023-12-28T15:53:40;6.30;99.90
20057;DHT22;10189;49.546;7.906;2023-12-28T15:56:06;6.20;99.90